EHRD/RTM METAR and TAF weather

Enter ICAO airport designator
Station Type Date Time Source
EHRD METAR 2021/01/27 13:55 UTC NOAA

EHRD 271355Z AUTO 26007KT 220V300 9999 SCT008 OVC010 07/06 Q1010 TEMPO 7000 -DZRA BKN006


Station Type Date Time Source
EHRD Decoded METAR 2021/01/27 13:55 UTC NOAA

Rotterdam Airport Zestienhoven, Netherlands (EHRD) 51-57N 004-27E -4M
Jan 27, 2021 - 08:55 AM EST / 2021.01.27 1355 UTC
Wind: from the W (260 degrees) at 8 MPH (7 KT) (direction variable):0
Visibility: greater than 7 mile(s):0
Sky conditions: overcast
Temperature: 44 F (7 C)
Dew Point: 42 F (6 C)
Relative Humidity: 93%
Pressure (altimeter): 29.83 in. Hg (1010 hPa)
ob: EHRD 271355Z AUTO 26007KT 220V300 9999 SCT008 OVC010 07/06 Q1010 TEMPO 7000 -DZRA BKN006
cycle: 14

Station Type Date Time Source
EHRD TAF 2021/01/27 12:27 UTC NOAA

TAF EHRD 271117Z 2712/2818 28011KT 9999 SCT008 BKN014 PROB40
TEMPO 2712/2805 7000 -DZRA FEW003 BKN005
BECMG 2717/2720 29005KT PROB40
TEMPO 2801/2809 2000 BR SCT002 BKN003
BECMG 2804/2807 10010KT 6000 RA BKN008 PROB30
TEMPO 2809/2818 3000 DZ BKN004

Example: see airport list